createdAt,value
2019-03-06T00:00:32.913Z,1000.3
2019-03-06T00:01:35.635Z,1000.2
2019-03-06T00:02:35.577Z,1000.3
2019-03-06T00:03:36.947Z,1000.3
2019-03-06T00:04:38.300Z,1000.2
2019-03-06T00:05:39.651Z,1000.2
2019-03-06T00:06:41.003Z,1000.2
2019-03-06T00:07:42.348Z,1000.3
2019-03-06T00:08:43.667Z,1000.3
2019-03-06T00:09:45.026Z,1000.3
2019-03-06T00:10:46.372Z,1000.2
2019-03-06T00:11:47.740Z,1000.2
2019-03-06T00:12:49.081Z,1000.2
2019-03-06T00:13:50.425Z,1000.2
2019-03-06T00:14:51.781Z,1000.2
2019-03-06T00:15:53.130Z,1000.2
2019-03-06T00:16:54.486Z,1000.1
2019-03-06T00:17:55.850Z,1000.1
2019-03-06T00:18:57.199Z,1000.2
2019-03-06T00:19:58.516Z,1000.2
2019-03-06T00:20:59.896Z,1000.1
2019-03-06T00:22:01.230Z,1000.1
2019-03-06T00:23:02.595Z,1000.1
2019-03-06T00:24:03.946Z,1000.1
2019-03-06T00:25:05.297Z,1000.1
2019-03-06T00:26:06.693Z,1000.1
2019-03-06T00:27:08.040Z,1000.1
2019-03-06T00:28:09.400Z,1000.1
2019-03-06T00:29:10.747Z,1000.2
2019-03-06T00:30:12.107Z,1000.2
2019-03-06T00:31:13.411Z,1000.1
2019-03-06T00:32:14.771Z,1000.1
2019-03-06T00:33:16.131Z,1000.1
2019-03-06T00:34:17.480Z,1000.1
2019-03-06T00:35:18.832Z,1000.1
2019-03-06T00:36:20.190Z,1000.1
2019-03-06T00:37:21.540Z,1000.1
2019-03-06T00:38:22.898Z,1000.0
2019-03-06T00:39:24.241Z,1000.0
2019-03-06T00:40:25.601Z,1000.0
2019-03-06T00:41:26.913Z,1000.1
2019-03-06T00:42:28.273Z,1000.0
2019-03-06T00:43:29.625Z,1000.1
2019-03-06T00:44:30.983Z,1000.1
2019-03-06T00:45:32.326Z,1000.0
2019-03-06T00:46:33.690Z,1000.0
2019-03-06T00:47:35.052Z,1000.1
2019-03-06T00:48:36.407Z,1000.1
2019-03-06T00:49:37.786Z,1000.1
2019-03-06T00:50:39.133Z,1000.0
2019-03-06T00:51:40.507Z,1000.0
2019-03-06T00:52:41.822Z,1000.0
2019-03-06T00:53:43.165Z,999.9
2019-03-06T00:54:44.523Z,1000.0
2019-03-06T00:55:45.887Z,1000.0
2019-03-06T00:56:47.262Z,999.9
2019-03-06T00:57:48.616Z,999.9
2019-03-06T00:58:49.961Z,999.9
2019-03-06T00:59:51.320Z,999.9
2019-03-06T01:00:52.666Z,999.9
2019-03-06T01:01:54.018Z,999.9
2019-03-06T01:02:55.361Z,999.8
2019-03-06T01:03:56.676Z,999.8
2019-03-06T01:04:58.033Z,999.8
2019-03-06T01:05:59.383Z,999.8
2019-03-06T01:07:00.731Z,999.7
2019-03-06T01:08:02.082Z,999.7
2019-03-06T01:09:03.447Z,999.7
2019-03-06T01:10:04.810Z,999.7
2019-03-06T01:11:06.161Z,999.6
2019-03-06T01:12:07.510Z,999.7
2019-03-06T01:13:08.857Z,999.6
2019-03-06T01:14:10.205Z,999.7
2019-03-06T01:15:11.526Z,999.7
2019-03-06T01:16:12.881Z,999.7
2019-03-06T01:17:14.230Z,999.7
2019-03-06T01:18:15.584Z,999.6
2019-03-06T01:19:16.949Z,999.6
2019-03-06T01:20:18.287Z,999.6
2019-03-06T01:21:19.638Z,999.6
2019-03-06T01:22:20.990Z,999.5
2019-03-06T01:23:22.346Z,999.6
2019-03-06T01:24:23.697Z,999.6
2019-03-06T01:25:25.014Z,999.6
2019-03-06T01:26:26.363Z,999.6
2019-03-06T01:27:27.706Z,999.5
2019-03-06T01:28:29.061Z,999.5
2019-03-06T01:29:30.407Z,999.5
2019-03-06T01:30:31.753Z,999.5
2019-03-06T01:31:33.122Z,999.6
2019-03-06T01:32:34.462Z,999.6
2019-03-06T01:33:35.822Z,999.5
2019-03-06T01:35:16.686Z,999.5
2019-03-06T01:36:18.031Z,999.5
2019-03-06T01:37:19.385Z,999.5
2019-03-06T01:38:20.731Z,999.5
2019-03-06T01:39:22.073Z,999.5
2019-03-06T01:40:23.431Z,999.4
2019-03-06T01:41:24.778Z,999.4
2019-03-06T01:42:26.122Z,999.3
2019-03-06T01:43:27.592Z,999.3
2019-03-06T01:44:28.998Z,999.3
2019-03-06T01:45:30.297Z,999.3
2019-03-06T01:46:31.643Z,999.4
2019-03-06T01:47:32.991Z,999.3
2019-03-06T01:48:34.348Z,999.3
2019-03-06T01:49:35.692Z,999.3
2019-03-06T01:50:37.046Z,999.3
2019-03-06T01:51:38.392Z,999.4
2019-03-06T01:52:39.768Z,999.4
2019-03-06T01:53:41.122Z,999.4
2019-03-06T01:54:42.419Z,999.4
2019-03-06T01:55:43.767Z,999.3
2019-03-06T01:56:45.122Z,999.3
2019-03-06T01:57:46.466Z,999.3
2019-03-06T01:58:47.812Z,999.3
2019-03-06T01:59:49.166Z,999.2
2019-03-06T02:00:50.513Z,999.1
2019-03-06T02:01:51.863Z,999.2
2019-03-06T02:02:53.215Z,999.2
2019-03-06T02:03:54.559Z,999.2
2019-03-06T02:04:55.904Z,999.1
2019-03-06T02:05:57.208Z,999.1
2019-03-06T02:06:58.566Z,999.1
2019-03-06T02:07:59.913Z,999.1
2019-03-06T02:09:01.273Z,999.1
2019-03-06T02:10:02.622Z,999.1
2019-03-06T02:11:03.995Z,999.1
2019-03-06T02:12:05.316Z,999.1
2019-03-06T02:13:06.662Z,999.1
2019-03-06T02:14:08.048Z,999.0
2019-03-06T02:15:09.396Z,999.0
2019-03-06T02:16:10.708Z,999.1
2019-03-06T02:17:12.063Z,999.1
2019-03-06T02:18:13.416Z,999.2
2019-03-06T02:19:14.766Z,999.1
2019-03-06T02:20:16.121Z,999.0
2019-03-06T02:21:17.461Z,999.1
2019-03-06T02:22:18.813Z,999.0
2019-03-06T02:23:20.167Z,999.0
2019-03-06T02:24:21.523Z,998.9
2019-03-06T02:25:22.871Z,998.8
2019-03-06T02:26:24.227Z,998.8
2019-03-06T02:27:25.536Z,998.8
2019-03-06T02:28:26.891Z,998.8
2019-03-06T02:29:28.237Z,998.8
2019-03-06T02:30:29.589Z,998.8
2019-03-06T02:31:30.933Z,998.7
2019-03-06T02:32:32.304Z,998.7
2019-03-06T02:33:33.859Z,998.8
2019-03-06T02:34:35.206Z,998.7
2019-03-06T02:35:36.558Z,998.8
2019-03-06T02:36:38.024Z,998.7
2019-03-06T02:37:39.337Z,998.7
2019-03-06T02:38:40.678Z,998.7
2019-03-06T02:39:42.021Z,998.7
2019-03-06T02:40:43.373Z,998.7
2019-03-06T02:41:44.733Z,998.6
2019-03-06T02:42:46.076Z,998.7
2019-03-06T02:43:47.452Z,998.6
2019-03-06T02:44:48.803Z,998.6
2019-03-06T02:45:50.150Z,998.6
2019-03-06T02:46:51.497Z,998.6
2019-03-06T02:47:52.852Z,998.6
2019-03-06T02:48:54.189Z,998.6
2019-03-06T02:49:55.535Z,998.7
2019-03-06T02:50:56.889Z,998.6
2019-03-06T02:51:58.237Z,998.6
2019-03-06T02:52:59.587Z,998.6
2019-03-06T02:54:00.938Z,998.5
2019-03-06T02:55:02.280Z,998.5
2019-03-06T02:56:03.634Z,998.5
2019-03-06T02:57:04.972Z,998.4
2019-03-06T02:58:06.313Z,998.3
2019-03-06T02:59:07.628Z,998.3
2019-03-06T03:00:08.979Z,998.4
2019-03-06T03:01:10.324Z,998.4
2019-03-06T03:02:11.673Z,998.4
2019-03-06T03:03:13.026Z,998.4
2019-03-06T03:04:14.367Z,998.4
2019-03-06T03:05:15.731Z,998.4
2019-03-06T03:06:17.074Z,998.4
2019-03-06T03:07:18.414Z,998.3
2019-03-06T03:08:19.762Z,998.3
2019-03-06T03:09:21.099Z,998.3
2019-03-06T03:10:22.426Z,998.3
2019-03-06T03:11:23.769Z,998.3
2019-03-06T03:12:25.122Z,998.2
2019-03-06T03:13:26.476Z,998.2
2019-03-06T03:14:27.824Z,998.2
2019-03-06T03:15:29.173Z,998.2
2019-03-06T03:16:30.534Z,998.2
2019-03-06T03:17:31.883Z,998.2
2019-03-06T03:18:33.230Z,998.2
2019-03-06T03:19:34.583Z,998.2
2019-03-06T03:20:35.901Z,998.1
2019-03-06T03:21:37.252Z,998.2
2019-03-06T03:22:38.604Z,998.2
2019-03-06T03:23:39.962Z,998.1
2019-03-06T03:24:41.308Z,998.1
2019-03-06T03:25:42.660Z,998.2
2019-03-06T03:26:44.013Z,998.1
2019-03-06T03:27:45.358Z,998.1
2019-03-06T03:28:46.709Z,998.1
2019-03-06T03:29:48.069Z,998.1
2019-03-06T03:30:49.379Z,998.1
2019-03-06T03:31:50.731Z,998.0
2019-03-06T03:32:52.085Z,998.1
2019-03-06T03:33:53.428Z,998.0
2019-03-06T03:34:54.790Z,997.9
2019-03-06T03:35:56.139Z,997.9
2019-03-06T03:36:57.483Z,997.9
2019-03-06T03:37:58.828Z,997.8
2019-03-06T03:39:00.173Z,997.9
2019-03-06T03:40:01.519Z,997.9
2019-03-06T03:41:02.832Z,997.9
2019-03-06T03:42:04.174Z,997.9
2019-03-06T03:43:05.527Z,997.9
2019-03-06T03:44:06.897Z,998.0
2019-03-06T03:45:08.234Z,998.0
2019-03-06T03:46:09.568Z,997.9
2019-03-06T03:47:10.910Z,997.9
2019-03-06T03:48:12.259Z,997.9
2019-03-06T03:49:13.603Z,997.9
2019-03-06T03:50:14.955Z,997.8
2019-03-06T03:51:16.260Z,997.8
2019-03-06T03:52:17.608Z,997.8
2019-03-06T03:53:18.958Z,997.9
2019-03-06T03:54:20.299Z,997.9
2019-03-06T03:55:21.654Z,997.9
2019-03-06T03:56:22.998Z,997.8
2019-03-06T03:57:24.343Z,997.8
2019-03-06T03:58:25.701Z,997.8
2019-03-06T03:59:27.053Z,997.8
2019-03-06T04:00:28.413Z,997.8
2019-03-06T04:01:29.748Z,997.9
2019-03-06T04:02:31.054Z,997.9
2019-03-06T04:03:32.409Z,997.9
2019-03-06T04:04:33.753Z,997.9
2019-03-06T04:05:35.119Z,997.9
2019-03-06T04:06:36.461Z,997.9
2019-03-06T04:07:37.810Z,997.9
2019-03-06T04:08:39.161Z,997.9
2019-03-06T04:09:40.503Z,997.9
2019-03-06T04:10:41.860Z,997.9
2019-03-06T04:11:43.200Z,998.0
2019-03-06T04:12:44.514Z,998.0
2019-03-06T04:13:45.864Z,997.9
2019-03-06T04:14:47.203Z,997.9
2019-03-06T04:15:48.572Z,997.9
2019-03-06T04:16:49.920Z,997.8
2019-03-06T04:17:51.270Z,997.8
2019-03-06T04:18:52.618Z,997.8
2019-03-06T04:19:53.966Z,997.9
2019-03-06T04:20:55.313Z,998.0
2019-03-06T04:21:56.662Z,997.9
2019-03-06T04:22:57.986Z,997.9
2019-03-06T04:23:59.326Z,997.8
2019-03-06T04:25:00.678Z,997.8
2019-03-06T04:26:02.023Z,997.9
2019-03-06T04:27:03.385Z,997.8
2019-03-06T04:28:04.729Z,997.9
2019-03-06T04:29:06.084Z,997.9
2019-03-06T04:30:07.429Z,997.8
2019-03-06T04:31:08.778Z,997.9
2019-03-06T04:32:10.134Z,997.9
2019-03-06T04:33:11.460Z,997.9
2019-03-06T04:34:12.834Z,997.9
2019-03-06T04:35:14.191Z,997.8
2019-03-06T04:36:15.538Z,997.8
2019-03-06T04:37:16.894Z,997.8
2019-03-06T04:38:18.289Z,997.8
2019-03-06T04:39:19.694Z,997.8
2019-03-06T04:40:21.024Z,997.8
2019-03-06T04:41:22.388Z,997.8
2019-03-06T04:42:23.763Z,997.7
2019-03-06T04:43:25.106Z,997.7
2019-03-06T04:44:26.415Z,997.7
2019-03-06T04:45:27.765Z,997.8
2019-03-06T04:46:29.116Z,997.8
2019-03-06T04:47:30.470Z,997.7
2019-03-06T04:48:31.820Z,997.7
2019-03-06T04:49:33.160Z,997.7
2019-03-06T04:50:34.511Z,997.7
2019-03-06T04:51:35.864Z,997.7
2019-03-06T04:52:37.208Z,997.7
2019-03-06T04:53:38.559Z,997.7
2019-03-06T04:54:39.874Z,997.7
2019-03-06T04:55:41.218Z,997.6
2019-03-06T04:56:42.573Z,997.6
2019-03-06T04:57:43.919Z,997.6
2019-03-06T04:58:45.267Z,997.7
2019-03-06T04:59:46.620Z,997.6
2019-03-06T05:00:47.975Z,997.6
2019-03-06T05:01:49.332Z,997.6
2019-03-06T05:02:50.679Z,997.6
2019-03-06T05:03:52.016Z,997.5
2019-03-06T05:04:53.372Z,997.5
2019-03-06T05:05:54.688Z,997.4
2019-03-06T05:06:56.034Z,997.4
2019-03-06T05:07:57.384Z,997.4
2019-03-06T05:08:58.739Z,997.4
2019-03-06T05:10:00.092Z,997.4
2019-03-06T05:11:01.399Z,997.4
2019-03-06T05:12:02.754Z,997.4
2019-03-06T05:13:04.105Z,997.5
2019-03-06T05:14:05.454Z,997.4
2019-03-06T05:15:06.811Z,997.5
2019-03-06T05:16:08.118Z,997.4
2019-03-06T05:17:09.474Z,997.3
2019-03-06T05:18:10.824Z,997.3
2019-03-06T05:19:12.161Z,997.3
2019-03-06T05:20:13.511Z,997.3
2019-03-06T05:21:14.860Z,997.3
2019-03-06T05:22:16.211Z,997.2
2019-03-06T05:23:17.553Z,997.2
2019-03-06T05:24:18.909Z,997.3
2019-03-06T05:25:20.257Z,997.2
2019-03-06T05:26:21.601Z,997.3
2019-03-06T05:27:22.955Z,997.3
2019-03-06T05:28:24.311Z,997.3
2019-03-06T05:29:25.653Z,997.3
2019-03-06T05:30:27.022Z,997.3
2019-03-06T05:31:28.354Z,997.3
2019-03-06T05:32:29.709Z,997.3
2019-03-06T05:33:31.052Z,997.2
2019-03-06T05:34:32.396Z,997.3
2019-03-06T05:35:33.746Z,997.3
2019-03-06T05:36:35.103Z,997.3
2019-03-06T05:37:36.411Z,997.3
2019-03-06T05:38:37.770Z,997.3
2019-03-06T05:39:39.125Z,997.3
2019-03-06T05:40:40.479Z,997.3
2019-03-06T05:41:41.818Z,997.3
2019-03-06T05:42:43.169Z,997.3
2019-03-06T05:43:44.565Z,997.2
2019-03-06T05:44:45.873Z,997.3
2019-03-06T05:45:47.224Z,997.2
2019-03-06T05:46:48.574Z,997.2
2019-03-06T05:47:49.931Z,997.2
2019-03-06T05:48:51.243Z,997.2
2019-03-06T05:49:52.601Z,997.1
2019-03-06T05:50:53.944Z,997.1
2019-03-06T05:51:55.299Z,997.1
2019-03-06T05:52:56.646Z,997.1
2019-03-06T05:53:57.990Z,997.1
2019-03-06T05:54:59.341Z,997.1
2019-03-06T05:56:00.694Z,997.0
2019-03-06T05:57:02.049Z,997.1
2019-03-06T05:58:03.399Z,997.1
2019-03-06T05:59:04.758Z,997.2
2019-03-06T06:00:06.068Z,997.1
2019-03-06T06:01:07.414Z,997.1
2019-03-06T06:02:08.760Z,997.1
2019-03-06T06:03:10.130Z,997.1
2019-03-06T06:04:11.476Z,997.1
2019-03-06T06:05:12.829Z,997.1
2019-03-06T06:06:14.183Z,997.1
2019-03-06T06:07:15.534Z,997.1
2019-03-06T06:08:16.886Z,997.0
2019-03-06T06:09:18.235Z,997.1
2019-03-06T06:10:19.586Z,997.1
2019-03-06T06:11:20.914Z,997.1
2019-03-06T06:12:22.262Z,997.1
2019-03-06T06:13:23.608Z,997.1
2019-03-06T06:14:24.974Z,997.1
2019-03-06T06:15:26.322Z,997.1
2019-03-06T06:16:27.674Z,997.1
2019-03-06T06:17:29.021Z,997.0
2019-03-06T06:18:30.376Z,997.1
2019-03-06T06:19:31.736Z,997.0
2019-03-06T06:20:33.097Z,997.1
2019-03-06T06:21:34.411Z,997.0
2019-03-06T06:22:35.774Z,997.0
2019-03-06T06:23:37.126Z,997.0
2019-03-06T06:24:38.495Z,996.9
2019-03-06T06:25:39.850Z,996.9
2019-03-06T06:26:41.201Z,996.9
2019-03-06T06:27:42.562Z,996.9
2019-03-06T06:28:43.920Z,996.8
2019-03-06T06:29:45.272Z,996.8
2019-03-06T06:30:46.666Z,996.9
2019-03-06T06:31:48.002Z,996.9
2019-03-06T06:32:49.324Z,996.9
2019-03-06T06:33:50.670Z,996.9
2019-03-06T06:34:52.026Z,996.9
2019-03-06T06:35:53.381Z,996.8
2019-03-06T06:36:54.736Z,996.8
2019-03-06T06:37:56.082Z,996.8
2019-03-06T06:38:57.425Z,996.8
2019-03-06T06:39:58.782Z,996.8
2019-03-06T06:41:00.139Z,996.8
2019-03-06T06:42:01.500Z,996.8
2019-03-06T06:43:02.852Z,996.7
2019-03-06T06:44:04.175Z,996.7
2019-03-06T06:45:05.525Z,996.7
2019-03-06T06:46:07.602Z,996.7
2019-03-06T06:47:08.180Z,996.6
2019-03-06T06:48:09.532Z,996.7
2019-03-06T06:49:10.895Z,996.7
2019-03-06T06:50:12.246Z,996.6
2019-03-06T06:51:13.595Z,996.6
2019-03-06T06:52:14.949Z,996.6
2019-03-06T06:53:16.301Z,996.5
2019-03-06T06:54:17.625Z,996.6
2019-03-06T06:55:18.980Z,996.6
2019-03-06T06:56:20.351Z,996.5
2019-03-06T06:57:21.701Z,996.5
2019-03-06T06:58:31.149Z,996.5
2019-03-06T06:59:24.375Z,996.5
2019-03-06T07:00:25.722Z,996.4
2019-03-06T07:01:27.079Z,996.4
2019-03-06T07:02:28.442Z,996.4
2019-03-06T07:03:29.792Z,996.3
2019-03-06T07:04:31.157Z,996.3
2019-03-06T07:05:32.514Z,996.3
2019-03-06T07:06:33.835Z,996.4
2019-03-06T07:07:35.177Z,996.3
2019-03-06T07:08:36.535Z,996.2
2019-03-06T07:09:37.891Z,996.4
2019-03-06T07:10:39.256Z,996.3
2019-03-06T07:11:40.607Z,996.3
2019-03-06T07:12:41.957Z,996.3
2019-03-06T07:13:43.325Z,996.1
2019-03-06T07:14:44.687Z,996.2
2019-03-06T07:15:46.068Z,996.2
2019-03-06T07:16:47.417Z,996.3
2019-03-06T07:17:48.737Z,996.2
2019-03-06T07:18:50.091Z,996.2
2019-03-06T07:19:51.446Z,996.2
2019-03-06T07:20:52.796Z,996.2
2019-03-06T07:21:54.155Z,996.3
2019-03-06T07:22:55.523Z,996.3
2019-03-06T07:23:57.008Z,996.3
2019-03-06T07:24:58.362Z,996.3
2019-03-06T07:25:59.712Z,996.3
2019-03-06T07:27:01.076Z,996.3
2019-03-06T07:28:02.417Z,996.4
2019-03-06T07:29:03.744Z,996.3
2019-03-06T07:30:05.103Z,996.2
2019-03-06T07:31:06.470Z,996.3
2019-03-06T07:32:07.813Z,996.1
2019-03-06T07:33:09.175Z,996.2
2019-03-06T07:34:10.525Z,996.1
2019-03-06T07:35:51.387Z,996.2
2019-03-06T07:36:52.755Z,996.2
2019-03-06T07:37:54.117Z,996.1
2019-03-06T07:38:55.470Z,996.2
2019-03-06T07:39:56.846Z,996.2
2019-03-06T07:40:58.187Z,996.2
2019-03-06T07:41:59.555Z,996.2
2019-03-06T07:43:00.922Z,996.2
2019-03-06T07:44:02.280Z,996.2
2019-03-06T07:45:03.662Z,996.3
2019-03-06T07:46:05.769Z,996.3
2019-03-06T07:47:06.341Z,996.3
2019-03-06T07:48:07.662Z,996.2
2019-03-06T07:49:09.028Z,996.2
2019-03-06T07:50:10.385Z,996.2
2019-03-06T07:51:11.746Z,996.1
2019-03-06T07:52:13.117Z,996.2
2019-03-06T07:53:14.477Z,996.3
2019-03-06T07:54:15.840Z,996.3
2019-03-06T07:55:17.215Z,996.1
2019-03-06T07:56:18.600Z,996.2
2019-03-06T07:57:19.958Z,996.2
2019-03-06T07:58:21.324Z,996.1
2019-03-06T07:59:22.647Z,996.0
2019-03-06T08:00:24.022Z,996.2
2019-03-06T08:01:25.382Z,996.1
2019-03-06T08:02:26.733Z,996.1
2019-03-06T08:03:28.093Z,996.1
2019-03-06T08:04:29.455Z,996.1
2019-03-06T08:05:30.810Z,996.0
2019-03-06T08:06:32.170Z,996.0
2019-03-06T08:07:33.526Z,996.0
2019-03-06T08:08:34.886Z,996.0
2019-03-06T08:09:36.248Z,996.0
2019-03-06T08:10:37.576Z,996.0
2019-03-06T08:11:38.977Z,995.9
2019-03-06T08:12:40.332Z,995.9
2019-03-06T08:13:41.691Z,995.9
2019-03-06T08:14:43.051Z,995.9
2019-03-06T08:15:44.406Z,996.0
2019-03-06T08:16:45.769Z,996.0
2019-03-06T08:17:47.130Z,996.1
2019-03-06T08:18:48.506Z,996.1
2019-03-06T08:19:49.885Z,996.1
2019-03-06T08:20:51.265Z,996.0
2019-03-06T08:21:52.608Z,996.0
2019-03-06T08:22:53.996Z,996.1
2019-03-06T08:23:55.382Z,996.1
2019-03-06T08:24:56.763Z,996.1
2019-03-06T08:25:58.148Z,996.2
2019-03-06T08:26:59.513Z,996.2
2019-03-06T08:28:00.888Z,996.2
2019-03-06T08:29:02.258Z,996.2
2019-03-06T08:30:03.646Z,996.1
2019-03-06T08:31:05.047Z,996.0
2019-03-06T08:32:06.411Z,995.9
2019-03-06T08:33:07.737Z,996.0
2019-03-06T08:34:09.112Z,996.0
2019-03-06T08:35:10.465Z,996.0
2019-03-06T08:36:11.827Z,996.0
2019-03-06T08:37:13.193Z,996.0
2019-03-06T08:38:14.566Z,996.1
2019-03-06T08:39:15.934Z,996.0
2019-03-06T08:40:17.292Z,996.0
2019-03-06T08:41:18.658Z,996.0
2019-03-06T08:42:20.007Z,995.9
2019-03-06T08:43:21.386Z,995.9
2019-03-06T08:44:22.726Z,996.0
2019-03-06T08:45:24.086Z,996.0
2019-03-06T08:46:25.568Z,996.0
2019-03-06T08:47:26.938Z,995.9
2019-03-06T08:48:28.316Z,995.9
2019-03-06T08:49:29.671Z,995.7
2019-03-06T08:50:31.040Z,995.8
2019-03-06T08:51:32.403Z,995.6
2019-03-06T08:52:33.769Z,995.6
2019-03-06T08:53:35.123Z,995.7
2019-03-06T08:54:36.493Z,995.7
2019-03-06T08:55:37.823Z,995.6
2019-03-06T08:56:39.182Z,995.5
2019-03-06T08:57:40.542Z,995.7
2019-03-06T08:58:41.907Z,995.5
2019-03-06T08:59:43.277Z,995.5
2019-03-06T09:00:44.640Z,995.6
2019-03-06T09:01:46.007Z,995.6
2019-03-06T09:02:47.371Z,995.6
2019-03-06T09:03:48.744Z,995.6
2019-03-06T09:04:50.108Z,995.5
2019-03-06T09:05:51.474Z,995.6
2019-03-06T09:06:52.809Z,995.6
2019-03-06T09:07:54.171Z,995.6
2019-03-06T09:08:55.547Z,995.7
2019-03-06T09:09:56.902Z,995.5
2019-03-06T09:11:02.889Z,995.5
2019-03-06T09:11:59.597Z,995.3
2019-03-06T09:13:00.979Z,995.5
2019-03-06T09:14:02.343Z,995.3
2019-03-06T09:15:03.716Z,995.3
2019-03-06T09:16:05.088Z,995.2
2019-03-06T09:17:06.453Z,995.2
2019-03-06T09:18:09.305Z,995.1
2019-03-06T09:19:09.111Z,995.1
2019-03-06T09:20:10.488Z,995.1
2019-03-06T09:21:11.854Z,995.1
2019-03-06T09:22:13.208Z,995.1
2019-03-06T09:23:22.605Z,995.2
2019-03-06T09:24:15.903Z,995.2
2019-03-06T09:25:17.268Z,995.1
2019-03-06T09:26:18.638Z,995.1
2019-03-06T09:27:20.008Z,995.2
2019-03-06T09:28:21.361Z,995.3
2019-03-06T09:29:22.693Z,995.4
2019-03-06T09:30:24.062Z,995.3
2019-03-06T09:31:25.414Z,995.3
2019-03-06T09:32:26.783Z,995.3
2019-03-06T09:33:28.148Z,995.4
2019-03-06T09:34:29.519Z,995.3
2019-03-06T09:35:30.891Z,995.2
2019-03-06T09:36:32.260Z,995.1
2019-03-06T09:37:33.628Z,995.2
2019-03-06T09:38:35.012Z,995.1
2019-03-06T09:39:36.376Z,995.2
2019-03-06T09:40:37.711Z,995.1
2019-03-06T09:41:39.070Z,995.1
2019-03-06T09:42:40.437Z,994.9
2019-03-06T09:43:41.792Z,994.8
2019-03-06T09:44:43.183Z,994.8
2019-03-06T09:45:44.557Z,994.8
2019-03-06T09:46:45.916Z,994.9
2019-03-06T09:47:47.287Z,995.0
2019-03-06T09:48:48.653Z,994.9
2019-03-06T09:49:50.019Z,994.9
2019-03-06T09:50:51.389Z,994.8
2019-03-06T09:51:52.753Z,994.7
2019-03-06T09:52:54.109Z,994.7
2019-03-06T09:53:55.482Z,994.7
2019-03-06T09:54:56.841Z,994.7
2019-03-06T09:55:58.207Z,994.7
2019-03-06T09:56:59.564Z,994.6
2019-03-06T09:58:00.964Z,994.5
2019-03-06T09:59:02.324Z,994.5
2019-03-06T10:00:03.706Z,994.5
2019-03-06T10:01:05.061Z,994.5
2019-03-06T10:02:07.098Z,994.4
2019-03-06T10:03:07.712Z,994.3
2019-03-06T10:04:09.079Z,994.5
2019-03-06T10:05:10.441Z,994.4
2019-03-06T10:06:11.799Z,994.5
2019-03-06T10:07:13.172Z,994.6
2019-03-06T10:08:14.532Z,994.5
2019-03-06T10:09:15.907Z,994.6
2019-03-06T10:10:17.266Z,994.8
2019-03-06T10:11:20.170Z,994.7
2019-03-06T10:12:19.958Z,994.9
2019-03-06T10:13:21.297Z,994.7
2019-03-06T10:14:22.647Z,994.6
2019-03-06T10:15:24.156Z,994.7
2019-03-06T10:16:25.507Z,994.7
2019-03-06T10:17:26.888Z,994.7
2019-03-06T10:18:28.263Z,994.8
2019-03-06T10:19:29.698Z,994.8
2019-03-06T10:20:30.966Z,994.8
2019-03-06T10:21:32.321Z,994.7
2019-03-06T10:22:33.687Z,994.7
2019-03-06T10:23:35.033Z,994.5
2019-03-06T10:24:36.407Z,994.7
2019-03-06T10:25:37.772Z,994.6
2019-03-06T10:26:39.144Z,994.6
2019-03-06T10:27:40.504Z,994.5
2019-03-06T10:28:41.873Z,994.5
2019-03-06T10:29:43.244Z,994.4
2019-03-06T10:30:44.576Z,994.4
2019-03-06T10:31:45.946Z,994.4
2019-03-06T10:32:47.312Z,994.4
2019-03-06T10:33:48.682Z,994.3
2019-03-06T10:34:50.053Z,994.3
2019-03-06T10:35:51.427Z,994.3
2019-03-06T10:36:52.788Z,994.3
2019-03-06T10:37:54.112Z,994.2
2019-03-06T10:38:55.480Z,994.2
2019-03-06T10:39:56.826Z,994.2
2019-03-06T10:40:58.194Z,994.2
2019-03-06T10:41:59.564Z,994.1
2019-03-06T10:43:00.948Z,994.1
2019-03-06T10:44:02.319Z,994.1
2019-03-06T10:45:03.698Z,994.1
2019-03-06T10:46:05.069Z,994.2
2019-03-06T10:47:06.440Z,994.1
2019-03-06T10:48:07.772Z,994.0
2019-03-06T10:49:09.137Z,994.1
2019-03-06T10:50:10.522Z,994.0
2019-03-06T10:51:11.894Z,994.0
2019-03-06T10:52:13.259Z,994.3
2019-03-06T10:53:14.589Z,994.2
2019-03-06T10:54:15.965Z,994.2
2019-03-06T10:55:17.339Z,994.1
2019-03-06T10:56:18.704Z,994.1
2019-03-06T10:57:20.073Z,994.1
2019-03-06T10:58:21.479Z,994.1
2019-03-06T10:59:22.818Z,994.2
2019-03-06T11:00:24.206Z,994.2
2019-03-06T11:01:25.525Z,994.2
2019-03-06T11:02:26.899Z,993.8
2019-03-06T11:03:28.266Z,994.0
2019-03-06T11:04:29.640Z,993.8
2019-03-06T11:05:31.013Z,993.8
2019-03-06T11:06:32.378Z,993.9
2019-03-06T11:07:33.749Z,994.0
2019-03-06T11:08:35.123Z,993.9
2019-03-06T11:09:36.497Z,993.9
2019-03-06T11:10:37.893Z,993.8
2019-03-06T11:11:39.264Z,993.7
2019-03-06T11:12:40.640Z,993.7
2019-03-06T11:13:42.004Z,993.7
2019-03-06T11:14:44.530Z,993.8
2019-03-06T11:15:44.669Z,993.9
2019-03-06T11:16:46.038Z,993.8
2019-03-06T11:17:47.377Z,993.9
2019-03-06T11:18:48.704Z,993.7
2019-03-06T11:19:50.081Z,993.6
2019-03-06T11:20:51.453Z,993.5
2019-03-06T11:21:52.820Z,993.6
2019-03-06T11:22:54.185Z,993.5
2019-03-06T11:23:55.568Z,993.6
2019-03-06T11:24:56.929Z,993.3
2019-03-06T11:25:58.293Z,993.4
2019-03-06T11:26:59.662Z,993.4
2019-03-06T11:28:01.036Z,993.3
2019-03-06T11:29:02.400Z,993.4
2019-03-06T11:30:03.767Z,993.3
2019-03-06T11:31:05.104Z,993.3
2019-03-06T11:32:06.480Z,993.3
2019-03-06T11:33:07.853Z,993.3
2019-03-06T11:34:09.229Z,993.3
2019-03-06T11:35:10.624Z,993.2
2019-03-06T11:36:11.989Z,993.3
2019-03-06T11:37:13.479Z,993.2
2019-03-06T11:38:14.843Z,993.1
2019-03-06T11:39:16.223Z,993.3
2019-03-06T11:40:17.590Z,993.2
2019-03-06T11:41:18.919Z,993.1
2019-03-06T11:42:20.280Z,993.1
2019-03-06T11:43:21.655Z,993.1
2019-03-06T11:44:23.021Z,993.0
2019-03-06T11:45:24.383Z,993.0
2019-03-06T11:46:25.761Z,993.0
2019-03-06T11:47:27.128Z,993.0
2019-03-06T11:48:28.493Z,992.9
2019-03-06T11:49:29.864Z,992.9
2019-03-06T11:50:38.021Z,992.9
2019-03-06T11:51:32.584Z,992.9
2019-03-06T11:52:34.855Z,992.9
2019-03-06T11:53:35.280Z,992.8
2019-03-06T11:54:36.648Z,992.8
2019-03-06T11:55:38.023Z,992.7
2019-03-06T11:56:39.397Z,993.0
2019-03-06T11:57:40.758Z,993.0
2019-03-06T11:58:42.135Z,993.0
2019-03-06T11:59:43.464Z,992.9
2019-03-06T12:00:44.841Z,992.8
2019-03-06T12:01:48.203Z,992.9
2019-03-06T12:02:47.559Z,992.7
2019-03-06T12:03:48.935Z,992.6
2019-03-06T12:04:50.303Z,992.7
2019-03-06T12:05:51.682Z,992.7
2019-03-06T12:06:53.052Z,992.6
2019-03-06T12:07:54.419Z,992.6
2019-03-06T12:08:55.753Z,992.6
2019-03-06T12:09:57.124Z,992.6
2019-03-06T12:10:58.514Z,992.4
2019-03-06T12:11:59.880Z,992.5
2019-03-06T12:13:01.264Z,992.4
2019-03-06T12:14:02.630Z,992.5
2019-03-06T12:15:04.001Z,992.5
2019-03-06T12:16:05.372Z,992.4
2019-03-06T12:17:06.739Z,992.4
2019-03-06T12:18:08.080Z,992.4
2019-03-06T12:19:09.448Z,992.5
2019-03-06T12:20:10.815Z,992.6
2019-03-06T12:21:12.184Z,992.6
2019-03-06T12:22:13.554Z,992.5
2019-03-06T12:23:14.924Z,992.5
2019-03-06T12:24:16.295Z,992.5
2019-03-06T12:25:17.660Z,992.4
2019-03-06T12:26:19.034Z,992.5
2019-03-06T12:27:20.366Z,992.4
2019-03-06T12:28:21.732Z,992.4
2019-03-06T12:29:23.109Z,992.3
2019-03-06T12:30:24.479Z,992.3
2019-03-06T12:31:25.854Z,992.2
2019-03-06T12:32:27.280Z,992.2
2019-03-06T12:33:28.550Z,992.2
2019-03-06T12:34:29.922Z,992.2
2019-03-06T12:35:31.299Z,992.2
2019-03-06T12:36:32.675Z,992.1
2019-03-06T12:37:34.018Z,992.2
2019-03-06T12:38:35.389Z,992.2
2019-03-06T12:39:36.776Z,992.1
2019-03-06T12:40:38.138Z,992.1
2019-03-06T12:41:39.518Z,992.0
2019-03-06T12:42:40.889Z,992.1
2019-03-06T12:43:42.274Z,992.0
2019-03-06T12:44:43.644Z,991.7
2019-03-06T12:45:45.015Z,991.8
2019-03-06T12:46:46.389Z,991.8
2019-03-06T12:47:55.125Z,991.8
2019-03-06T12:48:49.078Z,991.7
2019-03-06T12:49:50.440Z,991.7
2019-03-06T12:50:56.013Z,991.7
2019-03-06T12:51:54.661Z,991.6
2019-03-06T12:52:54.496Z,991.6
2019-03-06T12:53:55.879Z,991.6
2019-03-06T12:54:57.258Z,991.7
2019-03-06T12:55:58.626Z,991.6
2019-03-06T12:57:00.005Z,991.7
2019-03-06T12:58:01.331Z,991.6
2019-03-06T12:59:02.716Z,991.5
2019-03-06T13:00:04.078Z,991.6
2019-03-06T13:01:05.445Z,991.6
2019-03-06T13:02:06.856Z,991.6
2019-03-06T13:03:08.223Z,991.6
2019-03-06T13:04:09.597Z,991.7
2019-03-06T13:05:10.954Z,991.6
2019-03-06T13:06:12.325Z,991.6
2019-03-06T13:07:13.664Z,991.6
2019-03-06T13:08:19.623Z,991.7
2019-03-06T13:09:16.377Z,991.5